sensor_id;sensor_type;location;lat;lon;timestamp;pressure;altitude;pressure_sealevel;temperature;humidity
3917;BME280;1973;50.518;7.318;2023-04-30T00:00:04;101496.34;;;11.06;100.00
3917;BME280;1973;50.518;7.318;2023-04-30T00:02:33;101493.59;;;11.06;100.00
3917;BME280;1973;50.518;7.318;2023-04-30T00:05:00;101504.44;;;11.08;100.00
3917;BME280;1973;50.518;7.318;2023-04-30T00:07:27;101497.03;;;11.08;100.00
3917;BME280;1973;50.518;7.318;2023-04-30T00:09:53;101499.78;;;11.08;100.00
3917;BME280;1973;50.518;7.318;2023-04-30T00:12:20;101495.94;;;11.09;100.00
3917;BME280;1973;50.518;7.318;2023-04-30T00:14:47;101495.75;;;11.11;100.00
3917;BME280;1973;50.518;7.318;2023-04-30T00:17:14;101496.81;;;11.10;100.00
3917;BME280;1973;50.518;7.318;2023-04-30T00:19:41;101505.06;;;11.10;100.00
3917;BME280;1973;50.518;7.318;2023-04-30T00:22:08;101506.78;;;11.11;100.00
3917;BME280;1973;50.518;7.318;2023-04-30T00:24:34;101504.03;;;11.11;100.00
3917;BME280;1973;50.518;7.318;2023-04-30T00:27:01;101497.03;;;11.08;100.00
3917;BME280;1973;50.518;7.318;2023-04-30T00:29:27;101499.56;;;11.10;100.00
3917;BME280;1973;50.518;7.318;2023-04-30T00:31:53;101504.88;;;11.11;100.00
3917;BME280;1973;50.518;7.318;2023-04-30T00:34:20;101506.56;;;11.12;100.00
3917;BME280;1973;50.518;7.318;2023-04-30T00:36:47;101509.31;;;11.12;100.00
3917;BME280;1973;50.518;7.318;2023-04-30T00:39:13;101504.66;;;11.13;100.00
3917;BME280;1973;50.518;7.318;2023-04-30T00:41:40;101508.28;;;11.13;100.00
3917;BME280;1973;50.518;7.318;2023-04-30T00:44:06;101510.16;;;11.13;100.00
3917;BME280;1973;50.518;7.318;2023-04-30T00:46:33;101511.44;;;11.10;100.00
3917;BME280;1973;50.518;7.318;2023-04-30T00:48:59;101511.25;;;11.12;100.00
3917;BME280;1973;50.518;7.318;2023-04-30T00:51:34;101506.56;;;11.12;100.00
3917;BME280;1973;50.518;7.318;2023-04-30T00:54:01;101521.19;;;11.13;100.00
3917;BME280;1973;50.518;7.318;2023-04-30T00:56:31;101507.63;;;11.11;100.00
3917;BME280;1973;50.518;7.318;2023-04-30T00:58:58;101502.13;;;11.11;100.00
3917;BME280;1973;50.518;7.318;2023-04-30T01:01:25;101511.44;;;11.10;100.00
3917;BME280;1973;50.518;7.318;2023-04-30T01:03:54;101510.56;;;11.10;100.00
3917;BME280;1973;50.518;7.318;2023-04-30T01:09:03;101511.84;;;11.07;100.00
3917;BME280;1973;50.518;7.318;2023-04-30T01:11:51;101509.09;;;11.07;100.00
3917;BME280;1973;50.518;7.318;2023-04-30T01:14:36;101507.56;;;11.05;100.00
3917;BME280;1973;50.518;7.318;2023-04-30T01:17:16;101508.41;;;11.05;100.00
3917;BME280;1973;50.518;7.318;2023-04-30T01:19:46;101509.50;;;11.04;100.00
3917;BME280;1973;50.518;7.318;2023-04-30T01:28:00;101514.34;;;11.02;100.00
3917;BME280;1973;50.518;7.318;2023-04-30T01:30:29;101509.69;;;11.03;100.00
3917;BME280;1973;50.518;7.318;2023-04-30T01:32:56;101507.13;;;11.01;100.00
3917;BME280;1973;50.518;7.318;2023-04-30T01:38:39;101505.44;;;11.00;100.00
3917;BME280;1973;50.518;7.318;2023-04-30T01:43:49;101513.03;;;10.98;100.00
3917;BME280;1973;50.518;7.318;2023-04-30T01:46:28;101505.44;;;11.00;100.00
3917;BME280;1973;50.518;7.318;2023-04-30T01:49:02;101503.72;;;10.99;100.00
3917;BME280;1973;50.518;7.318;2023-04-30T01:51:39;101507.53;;;10.98;100.00
3917;BME280;1973;50.518;7.318;2023-04-30T01:54:29;101505.84;;;10.97;100.00
3917;BME280;1973;50.518;7.318;2023-04-30T01:57:14;101511.53;;;10.96;100.00
3917;BME280;1973;50.518;7.318;2023-04-30T01:59:42;101497.94;;;10.94;100.00
3917;BME280;1973;50.518;7.318;2023-04-30T02:02:08;101510.03;;;10.93;100.00
3917;BME280;1973;50.518;7.318;2023-04-30T02:04:35;101507.28;;;10.93;100.00
3917;BME280;1973;50.518;7.318;2023-04-30T02:07:01;101513.00;;;10.92;100.00
3917;BME280;1973;50.518;7.318;2023-04-30T02:09:28;101513.19;;;10.90;100.00
3917;BME280;1973;50.518;7.318;2023-04-30T02:11:54;101515.28;;;10.88;100.00
3917;BME280;1973;50.518;7.318;2023-04-30T02:14:24;101516.75;;;10.84;100.00
3917;BME280;1973;50.518;7.318;2023-04-30T02:16:50;101517.34;;;10.80;100.00
3917;BME280;1973;50.518;7.318;2023-04-30T02:19:17;101517.56;;;10.78;100.00
3917;BME280;1973;50.518;7.318;2023-04-30T02:21:43;101521.75;;;10.74;100.00
3917;BME280;1973;50.518;7.318;2023-04-30T02:24:10;101518.72;;;10.69;100.00
3917;BME280;1973;50.518;7.318;2023-04-30T02:26:36;101513.00;;;10.64;100.00
3917;BME280;1973;50.518;7.318;2023-04-30T02:29:02;101513.56;;;10.59;100.00
3917;BME280;1973;50.518;7.318;2023-04-30T02:31:29;101519.66;;;10.55;100.00
3917;BME280;1973;50.518;7.318;2023-04-30T02:33:55;101516.66;;;10.50;100.00
3917;BME280;1973;50.518;7.318;2023-04-30T02:36:22;101517.91;;;10.47;100.00
3917;BME280;1973;50.518;7.318;2023-04-30T02:38:48;101535.00;;;10.43;100.00
3917;BME280;1973;50.518;7.318;2023-04-30T02:41:15;101525.44;;;10.39;100.00
3917;BME280;1973;50.518;7.318;2023-04-30T02:43:41;101530.47;;;10.35;100.00
3917;BME280;1973;50.518;7.318;2023-04-30T02:46:07;101529.16;;;10.31;100.00
3917;BME280;1973;50.518;7.318;2023-04-30T02:48:34;101533.16;;;10.29;100.00
3917;BME280;1973;50.518;7.318;2023-04-30T02:51:00;101531.00;;;10.24;100.00
3917;BME280;1973;50.518;7.318;2023-04-30T02:53:27;101530.53;;;10.20;100.00
3917;BME280;1973;50.518;7.318;2023-04-30T02:55:53;101536.25;;;10.19;100.00
3917;BME280;1973;50.518;7.318;2023-04-30T02:58:19;101527.31;;;10.17;100.00
3917;BME280;1973;50.518;7.318;2023-04-30T03:00:46;101535.09;;;10.13;100.00
3917;BME280;1973;50.518;7.318;2023-04-30T03:03:12;101529.78;;;10.12;100.00
3917;BME280;1973;50.518;7.318;2023-04-30T03:05:39;101535.47;;;10.10;100.00
3917;BME280;1973;50.518;7.318;2023-04-30T03:08:06;101537.13;;;10.05;100.00
3917;BME280;1973;50.518;7.318;2023-04-30T03:10:32;101534.09;;;10.00;100.00
3917;BME280;1973;50.518;7.318;2023-04-30T03:12:59;101536.16;;;9.98;100.00
3917;BME280;1973;50.518;7.318;2023-04-30T03:15:25;101529.16;;;9.95;100.00
3917;BME280;1973;50.518;7.318;2023-04-30T03:17:52;101528.91;;;9.90;100.00
3917;BME280;1973;50.518;7.318;2023-04-30T03:20:18;101525.00;;;9.85;100.00
3917;BME280;1973;50.518;7.318;2023-04-30T03:22:45;101522.44;;;9.83;100.00
3917;BME280;1973;50.518;7.318;2023-04-30T03:25:11;101520.94;;;9.81;100.00
3917;BME280;1973;50.518;7.318;2023-04-30T03:27:38;101523.22;;;9.77;100.00
3917;BME280;1973;50.518;7.318;2023-04-30T03:30:05;101522.94;;;9.72;100.00
3917;BME280;1973;50.518;7.318;2023-04-30T03:32:32;101521.66;;;9.68;100.00
3917;BME280;1973;50.518;7.318;2023-04-30T03:34:59;101523.72;;;9.66;100.00
3917;BME280;1973;50.518;7.318;2023-04-30T03:37:25;101525.16;;;9.62;100.00
3917;BME280;1973;50.518;7.318;2023-04-30T03:39:51;101525.53;;;9.59;100.00
3917;BME280;1973;50.518;7.318;2023-04-30T03:42:18;101528.66;;;9.56;100.00
3917;BME280;1973;50.518;7.318;2023-04-30T03:44:45;101531.13;;;9.51;100.00
3917;BME280;1973;50.518;7.318;2023-04-30T03:47:11;101527.06;;;9.47;100.00
3917;BME280;1973;50.518;7.318;2023-04-30T03:49:38;101532.28;;;9.42;100.00
3917;BME280;1973;50.518;7.318;2023-04-30T03:52:04;101521.47;;;9.40;100.00
3917;BME280;1973;50.518;7.318;2023-04-30T03:54:31;101524.41;;;9.39;100.00
3917;BME280;1973;50.518;7.318;2023-04-30T03:56:59;101517.78;;;9.33;100.00
3917;BME280;1973;50.518;7.318;2023-04-30T03:59:32;101525.38;;;9.31;100.00
3917;BME280;1973;50.518;7.318;2023-04-30T04:01:59;101521.66;;;9.24;100.00
3917;BME280;1973;50.518;7.318;2023-04-30T04:04:27;101519.97;;;9.23;100.00
3917;BME280;1973;50.518;7.318;2023-04-30T04:06:55;101528.38;;;9.21;100.00
3917;BME280;1973;50.518;7.318;2023-04-30T04:09:21;101528.09;;;9.16;100.00
3917;BME280;1973;50.518;7.318;2023-04-30T04:11:48;101526.78;;;9.12;100.00
3917;BME280;1973;50.518;7.318;2023-04-30T04:14:14;101527.13;;;9.09;100.00
3917;BME280;1973;50.518;7.318;2023-04-30T04:16:41;101536.44;;;9.08;100.00
3917;BME280;1973;50.518;7.318;2023-04-30T04:19:08;101535.59;;;9.08;100.00
3917;BME280;1973;50.518;7.318;2023-04-30T04:21:35;101534.56;;;9.09;100.00
3917;BME280;1973;50.518;7.318;2023-04-30T04:24:02;101528.19;;;9.08;100.00
3917;BME280;1973;50.518;7.318;2023-04-30T04:26:34;101537.94;;;9.11;100.00
3917;BME280;1973;50.518;7.318;2023-04-30T04:29:02;101531.22;;;9.13;100.00
3917;BME280;1973;50.518;7.318;2023-04-30T04:31:34;101540.16;;;9.15;100.00
3917;BME280;1973;50.518;7.318;2023-04-30T04:34:02;101546.13;;;9.19;100.00
3917;BME280;1973;50.518;7.318;2023-04-30T04:36:30;101543.84;;;9.22;100.00
3917;BME280;1973;50.518;7.318;2023-04-30T04:38:59;101542.59;;;9.25;100.00
3917;BME280;1973;50.518;7.318;2023-04-30T04:41:32;101547.91;;;9.26;100.00
3917;BME280;1973;50.518;7.318;2023-04-30T04:43:59;101543.47;;;9.25;100.00
3917;BME280;1973;50.518;7.318;2023-04-30T04:46:28;101546.69;;;9.29;100.00
3917;BME280;1973;50.518;7.318;2023-04-30T04:48:55;101549.25;;;9.31;100.00
3917;BME280;1973;50.518;7.318;2023-04-30T04:51:21;101555.41;;;9.33;100.00
3917;BME280;1973;50.518;7.318;2023-04-30T04:53:47;101553.97;;;9.37;100.00
3917;BME280;1973;50.518;7.318;2023-04-30T04:56:14;101557.03;;;9.42;100.00
3917;BME280;1973;50.518;7.318;2023-04-30T04:58:43;101558.72;;;9.43;100.00
3917;BME280;1973;50.518;7.318;2023-04-30T05:01:10;101554.75;;;9.45;100.00
3917;BME280;1973;50.518;7.318;2023-04-30T05:03:37;101549.91;;;9.47;100.00
3917;BME280;1973;50.518;7.318;2023-04-30T05:06:04;101563.47;;;9.49;100.00
3917;BME280;1973;50.518;7.318;2023-04-30T05:08:31;101562.41;;;9.50;100.00
3917;BME280;1973;50.518;7.318;2023-04-30T05:10:57;101563.09;;;9.52;100.00
3917;BME280;1973;50.518;7.318;2023-04-30T05:13:24;101571.97;;;9.54;100.00
3917;BME280;1973;50.518;7.318;2023-04-30T05:15:51;101561.84;;;9.54;100.00
3917;BME280;1973;50.518;7.318;2023-04-30T05:18:18;101564.41;;;9.56;100.00
3917;BME280;1973;50.518;7.318;2023-04-30T05:20:45;101575.88;;;9.59;100.00
3917;BME280;1973;50.518;7.318;2023-04-30T05:23:11;101568.09;;;9.63;100.00
3917;BME280;1973;50.518;7.318;2023-04-30T05:25:38;101566.00;;;9.65;100.00
3917;BME280;1973;50.518;7.318;2023-04-30T05:28:04;101579.38;;;9.68;100.00
3917;BME280;1973;50.518;7.318;2023-04-30T05:30:31;101579.00;;;9.71;100.00
3917;BME280;1973;50.518;7.318;2023-04-30T05:32:58;101579.84;;;9.71;100.00
3917;BME280;1973;50.518;7.318;2023-04-30T05:35:24;101576.50;;;9.76;100.00
3917;BME280;1973;50.518;7.318;2023-04-30T05:37:51;101583.34;;;9.80;100.00
3917;BME280;1973;50.518;7.318;2023-04-30T05:40:17;101590.16;;;9.84;100.00
3917;BME280;1973;50.518;7.318;2023-04-30T05:42:44;101589.41;;;9.90;100.00
3917;BME280;1973;50.518;7.318;2023-04-30T05:45:11;101590.53;;;9.96;100.00
3917;BME280;1973;50.518;7.318;2023-04-30T05:47:40;101591.69;;;10.01;100.00
3917;BME280;1973;50.518;7.318;2023-04-30T05:50:08;101578.19;;;10.06;100.00
3917;BME280;1973;50.518;7.318;2023-04-30T05:52:35;101579.09;;;10.13;100.00
3917;BME280;1973;50.518;7.318;2023-04-30T05:55:01;101584.94;;;10.18;100.00
3917;BME280;1973;50.518;7.318;2023-04-30T05:57:28;101580.75;;;10.22;100.00
3917;BME280;1973;50.518;7.318;2023-04-30T05:59:54;101580.16;;;10.27;100.00
3917;BME280;1973;50.518;7.318;2023-04-30T06:02:21;101583.00;;;10.34;100.00
3917;BME280;1973;50.518;7.318;2023-04-30T06:04:48;101578.41;;;10.41;100.00
3917;BME280;1973;50.518;7.318;2023-04-30T06:07:15;101580.75;;;10.44;100.00
3917;BME280;1973;50.518;7.318;2023-04-30T06:09:41;101584.16;;;10.46;100.00
3917;BME280;1973;50.518;7.318;2023-04-30T06:12:07;101580.19;;;10.48;100.00
3917;BME280;1973;50.518;7.318;2023-04-30T06:14:34;101579.13;;;10.49;100.00
3917;BME280;1973;50.518;7.318;2023-04-30T06:17:01;101586.72;;;10.47;100.00
3917;BME280;1973;50.518;7.318;2023-04-30T06:19:28;101585.47;;;10.50;100.00
3917;BME280;1973;50.518;7.318;2023-04-30T06:21:54;101585.75;;;10.55;100.00
3917;BME280;1973;50.518;7.318;2023-04-30T06:24:21;101585.34;;;10.58;100.00
3917;BME280;1973;50.518;7.318;2023-04-30T06:26:47;101586.03;;;10.60;100.00
3917;BME280;1973;50.518;7.318;2023-04-30T06:29:14;101584.13;;;10.60;100.00
3917;BME280;1973;50.518;7.318;2023-04-30T06:31:40;101586.03;;;10.60;100.00
3917;BME280;1973;50.518;7.318;2023-04-30T06:34:07;101594.94;;;10.62;100.00
3917;BME280;1973;50.518;7.318;2023-04-30T06:36:34;101588.16;;;10.64;100.00
3917;BME280;1973;50.518;7.318;2023-04-30T06:39:00;101586.72;;;10.68;100.00
3917;BME280;1973;50.518;7.318;2023-04-30T06:41:27;101583.78;;;10.70;100.00
3917;BME280;1973;50.518;7.318;2023-04-30T06:43:53;101585.28;;;10.72;100.00
3917;BME280;1973;50.518;7.318;2023-04-30T06:46:19;101587.19;;;10.72;100.00
3917;BME280;1973;50.518;7.318;2023-04-30T06:48:46;101587.84;;;10.74;100.00
3917;BME280;1973;50.518;7.318;2023-04-30T06:51:13;101575.19;;;10.80;100.00
3917;BME280;1973;50.518;7.318;2023-04-30T06:53:39;101577.63;;;10.89;100.00
3917;BME280;1973;50.518;7.318;2023-04-30T06:56:06;101574.06;;;10.95;100.00
3917;BME280;1973;50.518;7.318;2023-04-30T06:58:33;101573.25;;;11.01;100.00
3917;BME280;1973;50.518;7.318;2023-04-30T07:00:59;101572.47;;;11.07;100.00
3917;BME280;1973;50.518;7.318;2023-04-30T07:03:26;101577.56;;;11.10;100.00
3917;BME280;1973;50.518;7.318;2023-04-30T07:05:53;101569.13;;;11.12;100.00
3917;BME280;1973;50.518;7.318;2023-04-30T07:08:20;101568.72;;;11.15;100.00
3917;BME280;1973;50.518;7.318;2023-04-30T07:10:47;101569.78;;;11.20;100.00
3917;BME280;1973;50.518;7.318;2023-04-30T07:13:14;101567.50;;;11.24;100.00
3917;BME280;1973;50.518;7.318;2023-04-30T07:15:41;101574.34;;;11.35;100.00
3917;BME280;1973;50.518;7.318;2023-04-30T07:18:08;101569.94;;;11.40;100.00
3917;BME280;1973;50.518;7.318;2023-04-30T07:20:35;101572.13;;;11.51;100.00
3917;BME280;1973;50.518;7.318;2023-04-30T07:23:02;101571.03;;;11.46;100.00
3917;BME280;1973;50.518;7.318;2023-04-30T07:25:28;101563.31;;;11.35;100.00
3917;BME280;1973;50.518;7.318;2023-04-30T07:27:55;101574.88;;;11.45;100.00
3917;BME280;1973;50.518;7.318;2023-04-30T07:30:21;101569.56;;;11.50;100.00
3917;BME280;1973;50.518;7.318;2023-04-30T07:32:50;101570.19;;;11.45;100.00
3917;BME280;1973;50.518;7.318;2023-04-30T07:35:17;101568.94;;;11.48;100.00
3917;BME280;1973;50.518;7.318;2023-04-30T07:37:43;101570.66;;;11.49;100.00
3917;BME280;1973;50.518;7.318;2023-04-30T07:40:10;101566.47;;;11.59;100.00
3917;BME280;1973;50.518;7.318;2023-04-30T07:42:54;101559.28;;;11.65;100.00
3917;BME280;1973;50.518;7.318;2023-04-30T07:45:20;101547.69;;;11.76;100.00
3917;BME280;1973;50.518;7.318;2023-04-30T07:47:46;101549.81;;;11.74;100.00
3917;BME280;1973;50.518;7.318;2023-04-30T07:50:14;101560.38;;;11.70;100.00
3917;BME280;1973;50.518;7.318;2023-04-30T07:52:40;101549.16;;;11.72;100.00
3917;BME280;1973;50.518;7.318;2023-04-30T07:55:07;101557.97;;;11.61;100.00
3917;BME280;1973;50.518;7.318;2023-04-30T07:57:34;101559.28;;;11.65;100.00
3917;BME280;1973;50.518;7.318;2023-04-30T08:00:00;101551.91;;;11.72;100.00
3917;BME280;1973;50.518;7.318;2023-04-30T08:02:27;101556.94;;;11.68;100.00
3917;BME280;1973;50.518;7.318;2023-04-30T08:04:53;101551.25;;;11.70;100.00
3917;BME280;1973;50.518;7.318;2023-04-30T08:07:20;101557.19;;;11.67;100.00
3917;BME280;1973;50.518;7.318;2023-04-30T08:09:47;101550.03;;;11.79;100.00
3917;BME280;1973;50.518;7.318;2023-04-30T08:12:15;101554.34;;;11.88;100.00
3917;BME280;1973;50.518;7.318;2023-04-30T08:14:42;101545.47;;;11.99;100.00
3917;BME280;1973;50.518;7.318;2023-04-30T08:17:08;101545.50;;;12.12;100.00
3917;BME280;1973;50.518;7.318;2023-04-30T08:19:35;101543.84;;;12.25;100.00
3917;BME280;1973;50.518;7.318;2023-04-30T08:22:01;101534.94;;;12.36;100.00
3917;BME280;1973;50.518;7.318;2023-04-30T08:24:27;101541.34;;;12.43;100.00
3917;BME280;1973;50.518;7.318;2023-04-30T08:26:55;101532.84;;;12.57;100.00
3917;BME280;1973;50.518;7.318;2023-04-30T08:29:21;101526.50;;;12.70;100.00
3917;BME280;1973;50.518;7.318;2023-04-30T08:31:48;101530.97;;;12.84;100.00
3917;BME280;1973;50.518;7.318;2023-04-30T08:34:14;101528.19;;;12.97;100.00
3917;BME280;1973;50.518;7.318;2023-04-30T08:36:41;101515.25;;;13.11;100.00
3917;BME280;1973;50.518;7.318;2023-04-30T08:39:07;101518.84;;;13.25;100.00
3917;BME280;1973;50.518;7.318;2023-04-30T08:41:35;101515.41;;;13.42;100.00
3917;BME280;1973;50.518;7.318;2023-04-30T08:44:02;101513.88;;;13.59;100.00
3917;BME280;1973;50.518;7.318;2023-04-30T08:46:34;101507.63;;;13.77;100.00
3917;BME280;1973;50.518;7.318;2023-04-30T08:49:03;101498.19;;;13.91;100.00
3917;BME280;1973;50.518;7.318;2023-04-30T08:51:31;101502.38;;;14.07;100.00
3917;BME280;1973;50.518;7.318;2023-04-30T08:53:58;101502.53;;;14.19;100.00
3917;BME280;1973;50.518;7.318;2023-04-30T08:56:24;101493.69;;;14.35;100.00
3917;BME280;1973;50.518;7.318;2023-04-30T08:58:51;101495.94;;;14.51;100.00
3917;BME280;1973;50.518;7.318;2023-04-30T09:01:18;101489.69;;;14.62;100.00
3917;BME280;1973;50.518;7.318;2023-04-30T09:03:45;101489.56;;;14.75;100.00
3917;BME280;1973;50.518;7.318;2023-04-30T09:06:16;101498.38;;;14.90;100.00
3917;BME280;1973;50.518;7.318;2023-04-30T09:08:47;101486.34;;;15.03;100.00
3917;BME280;1973;50.518;7.318;2023-04-30T09:11:28;101492.59;;;15.17;100.00
3917;BME280;1973;50.518;7.318;2023-04-30T09:13:57;101483.69;;;15.33;100.00
3917;BME280;1973;50.518;7.318;2023-04-30T09:16:25;101471.34;;;15.47;100.00
3917;BME280;1973;50.518;7.318;2023-04-30T09:18:52;101469.59;;;15.52;100.00
3917;BME280;1973;50.518;7.318;2023-04-30T09:21:34;101473.75;;;15.62;100.00
3917;BME280;1973;50.518;7.318;2023-04-30T09:24:02;101470.59;;;15.76;100.00
3917;BME280;1973;50.518;7.318;2023-04-30T09:26:34;101469.97;;;15.92;100.00
3917;BME280;1973;50.518;7.318;2023-04-30T09:29:02;101473.53;;;16.11;100.00
3917;BME280;1973;50.518;7.318;2023-04-30T09:31:37;101467.31;;;16.27;100.00
3917;BME280;1973;50.518;7.318;2023-04-30T09:34:04;101461.94;;;16.44;100.00
3917;BME280;1973;50.518;7.318;2023-04-30T09:36:31;101463.38;;;16.46;100.00
3917;BME280;1973;50.518;7.318;2023-04-30T09:39:08;101458.78;;;16.52;98.18
3917;BME280;1973;50.518;7.318;2023-04-30T09:41:43;101449.19;;;16.66;100.00
3917;BME280;1973;50.518;7.318;2023-04-30T09:44:29;101450.38;;;16.82;98.03
3917;BME280;1973;50.518;7.318;2023-04-30T09:46:56;101453.31;;;16.98;100.00
3917;BME280;1973;50.518;7.318;2023-04-30T09:49:24;101439.28;;;17.17;99.61
3917;BME280;1973;50.518;7.318;2023-04-30T09:51:55;101444.56;;;17.30;82.02
3917;BME280;1973;50.518;7.318;2023-04-30T09:54:29;101432.56;;;17.41;79.09
3917;BME280;1973;50.518;7.318;2023-04-30T09:56:58;101438.63;;;17.49;80.20
3917;BME280;1973;50.518;7.318;2023-04-30T09:59:29;101430.03;;;17.51;69.05
3917;BME280;1973;50.518;7.318;2023-04-30T10:02:07;101421.56;;;17.58;66.90
3917;BME280;1973;50.518;7.318;2023-04-30T10:04:35;101421.03;;;17.72;76.10
3917;BME280;1973;50.518;7.318;2023-04-30T10:07:14;101424.28;;;17.81;59.19
3917;BME280;1973;50.518;7.318;2023-04-30T10:12:15;101409.69;;;17.90;67.77
3917;BME280;1973;50.518;7.318;2023-04-30T10:14:50;101411.50;;;17.85;59.12
3917;BME280;1973;50.518;7.318;2023-04-30T10:17:19;101403.22;;;17.73;61.44
3917;BME280;1973;50.518;7.318;2023-04-30T10:19:51;101402.03;;;17.97;59.68
3917;BME280;1973;50.518;7.318;2023-04-30T10:22:20;101397.31;;;18.15;62.57
3917;BME280;1973;50.518;7.318;2023-04-30T10:24:47;101386.38;;;18.41;60.83
3917;BME280;1973;50.518;7.318;2023-04-30T10:27:14;101385.06;;;18.61;59.31
3917;BME280;1973;50.518;7.318;2023-04-30T10:29:41;101386.63;;;18.90;57.62
3917;BME280;1973;50.518;7.318;2023-04-30T10:32:10;101388.06;;;19.14;54.23
3917;BME280;1973;50.518;7.318;2023-04-30T10:40:08;101369.56;;;19.68;54.70
3917;BME280;1973;50.518;7.318;2023-04-30T10:42:35;101369.59;;;20.00;52.90
3917;BME280;1973;50.518;7.318;2023-04-30T10:45:02;101359.50;;;20.26;51.64
3917;BME280;1973;50.518;7.318;2023-04-30T10:47:30;101357.50;;;20.48;50.24
3917;BME280;1973;50.518;7.318;2023-04-30T10:50:03;101353.16;;;20.67;46.21
3917;BME280;1973;50.518;7.318;2023-04-30T10:52:30;101348.81;;;20.86;48.69
3917;BME280;1973;50.518;7.318;2023-04-30T10:54:56;101338.03;;;21.10;49.26
3917;BME280;1973;50.518;7.318;2023-04-30T10:57:28;101332.81;;;21.29;44.70
3917;BME280;1973;50.518;7.318;2023-04-30T11:02:44;101322.31;;;21.61;45.83
3917;BME280;1973;50.518;7.318;2023-04-30T11:05:16;101321.81;;;21.90;45.52
3917;BME280;1973;50.518;7.318;2023-04-30T11:07:56;101318.50;;;22.13;43.41
3917;BME280;1973;50.518;7.318;2023-04-30T11:10:32;101314.56;;;22.34;42.10
3917;BME280;1973;50.518;7.318;2023-04-30T11:13:03;101303.63;;;22.58;43.22
3917;BME280;1973;50.518;7.318;2023-04-30T11:15:40;101301.31;;;22.80;41.38
3917;BME280;1973;50.518;7.318;2023-04-30T11:18:08;101299.34;;;22.91;43.10
3917;BME280;1973;50.518;7.318;2023-04-30T11:20:49;101293.41;;;23.02;40.71
3917;BME280;1973;50.518;7.318;2023-04-30T11:23:24;101304.13;;;22.90;41.36
3917;BME280;1973;50.518;7.318;2023-04-30T11:26:07;101292.53;;;23.07;41.17
3917;BME280;1973;50.518;7.318;2023-04-30T11:28:35;101299.94;;;22.77;41.21
3917;BME280;1973;50.518;7.318;2023-04-30T11:31:04;101309.53;;;22.46;41.23
3917;BME280;1973;50.518;7.318;2023-04-30T11:33:32;101306.16;;;22.24;40.40
3917;BME280;1973;50.518;7.318;2023-04-30T11:36:00;101295.75;;;22.04;40.73
3917;BME280;1973;50.518;7.318;2023-04-30T11:38:33;101299.34;;;21.74;37.50
3917;BME280;1973;50.518;7.318;2023-04-30T11:41:01;101289.47;;;21.52;40.29
3917;BME280;1973;50.518;7.318;2023-04-30T11:43:29;101284.13;;;21.45;40.53
3917;BME280;1973;50.518;7.318;2023-04-30T11:48:40;101276.06;;;21.64;36.84
3917;BME280;1973;50.518;7.318;2023-04-30T11:51:16;101283.38;;;21.75;37.40
3917;BME280;1973;50.518;7.318;2023-04-30T11:53:45;101281.38;;;21.60;37.85
3917;BME280;1973;50.518;7.318;2023-04-30T11:56:11;101273.53;;;21.57;38.45
3917;BME280;1973;50.518;7.318;2023-04-30T11:58:38;101276.38;;;21.88;39.30
3917;BME280;1973;50.518;7.318;2023-04-30T12:01:06;101264.63;;;22.21;39.31
3917;BME280;1973;50.518;7.318;2023-04-30T12:03:45;101256.19;;;22.46;36.84
3917;BME280;1973;50.518;7.318;2023-04-30T12:06:26;101260.69;;;22.27;36.85
3917;BME280;1973;50.518;7.318;2023-04-30T12:08:54;101245.22;;;22.40;39.00
3917;BME280;1973;50.518;7.318;2023-04-30T12:11:25;101247.75;;;22.51;36.33
3917;BME280;1973;50.518;7.318;2023-04-30T12:13:53;101246.66;;;22.37;37.18
3917;BME280;1973;50.518;7.318;2023-04-30T12:16:20;101253.13;;;22.22;37.49
3917;BME280;1973;50.518;7.318;2023-04-30T12:18:46;101257.91;;;21.97;37.78
3917;BME280;1973;50.518;7.318;2023-04-30T12:21:15;101253.94;;;21.77;37.85
3917;BME280;1973;50.518;7.318;2023-04-30T12:23:42;101253.34;;;21.60;38.51
3917;BME280;1973;50.518;7.318;2023-04-30T12:26:10;101260.09;;;21.64;39.39
3917;BME280;1973;50.518;7.318;2023-04-30T12:28:37;101249.94;;;21.48;38.29
3917;BME280;1973;50.518;7.318;2023-04-30T12:31:03;101249.66;;;21.45;38.61
3917;BME280;1973;50.518;7.318;2023-04-30T12:33:31;101243.75;;;21.31;39.03
3917;BME280;1973;50.518;7.318;2023-04-30T12:35:57;101249.34;;;21.21;38.33
3917;BME280;1973;50.518;7.318;2023-04-30T12:38:24;101256.09;;;21.35;38.33
3917;BME280;1973;50.518;7.318;2023-04-30T12:40:51;101237.59;;;21.24;37.77
3917;BME280;1973;50.518;7.318;2023-04-30T12:43:17;101244.34;;;21.38;38.29
3917;BME280;1973;50.518;7.318;2023-04-30T12:45:51;101238.44;;;21.40;37.36
3917;BME280;1973;50.518;7.318;2023-04-30T12:48:20;101246.50;;;21.16;37.85
3917;BME280;1973;50.518;7.318;2023-04-30T12:53:18;101238.00;;;21.01;38.14
3917;BME280;1973;50.518;7.318;2023-04-30T12:56:11;101233.09;;;21.23;35.59
3917;BME280;1973;50.518;7.318;2023-04-30T12:58:38;101220.19;;;21.17;37.27
3917;BME280;1973;50.518;7.318;2023-04-30T13:01:10;101220.25;;;21.52;36.57
3917;BME280;1973;50.518;7.318;2023-04-30T13:03:37;101214.69;;;21.88;36.89
3917;BME280;1973;50.518;7.318;2023-04-30T13:06:04;101207.13;;;22.08;36.31
3917;BME280;1973;50.518;7.318;2023-04-30T13:08:32;101199.53;;;22.19;36.15
3917;BME280;1973;50.518;7.318;2023-04-30T13:11:15;101198.41;;;22.25;35.49
3917;BME280;1973;50.518;7.318;2023-04-30T13:13:41;101197.84;;;22.28;35.04
3917;BME280;1973;50.518;7.318;2023-04-30T13:16:08;101197.22;;;22.56;35.00
3917;BME280;1973;50.518;7.318;2023-04-30T13:18:35;101194.16;;;22.48;35.70
3917;BME280;1973;50.518;7.318;2023-04-30T13:21:02;101198.09;;;22.42;35.83
3917;BME280;1973;50.518;7.318;2023-04-30T13:23:29;101186.06;;;22.31;35.73
3917;BME280;1973;50.518;7.318;2023-04-30T13:25:59;101178.16;;;22.43;35.65
3917;BME280;1973;50.518;7.318;2023-04-30T13:28:25;101172.47;;;22.73;35.37
3917;BME280;1973;50.518;7.318;2023-04-30T13:30:52;101177.31;;;23.17;35.89
3917;BME280;1973;50.518;7.318;2023-04-30T13:33:18;101184.94;;;23.55;36.19
3917;BME280;1973;50.518;7.318;2023-04-30T13:35:46;101168.78;;;24.05;36.48
3917;BME280;1973;50.518;7.318;2023-04-30T13:38:12;101175.66;;;23.89;35.42
3917;BME280;1973;50.518;7.318;2023-04-30T13:40:39;101177.47;;;23.74;35.21